Time;durP1;ratioP1;P1;durP2;ratioP2;P2;SDS_P1;SDS_P2;PMS_P1;PMS_P2;Temp;Humidity;BMP_temperature;BMP_pressure;BME280_temperature;BME280_humidity;BME280_pressure;Samples;Min_cycle;Max_cycle;Signal;HPM_P1;HPM_P2
2023/12/14 00:03:18;;;;;;;3.07;2.63;;;;;;;12.13;58.93;97699.06;8361286;23;20567;-78
2023/12/14 00:06:39;;;;;;;3.07;2.80;;;;;;;12.13;58.80;97699.06;8362312;23;20315;-78
2023/12/14 00:10:01;;;;;;;2.47;2.33;;;;;;;12.26;58.31;97703.34;8361297;23;20269;-78
2023/12/14 00:13:22;;;;;;;5.37;4.57;;;;;;;12.13;57.80;97668.53;8362598;23;20220;-78
2023/12/14 00:16:45;;;;;;;2.67;2.47;;;;;;;12.24;58.20;97705.47;8361715;23;20216;-77
2023/12/14 00:20:08;;;;;;;3.10;2.90;;;;;;;12.26;58.19;97720.38;8360537;23;20216;-77
2023/12/14 00:23:30;;;;;;;3.27;3.07;;;;;;;12.20;58.23;97720.53;8361518;23;20213;-77
2023/12/14 00:26:51;;;;;;;3.10;2.90;;;;;;;12.25;57.99;97728.72;8361990;23;20380;-78
2023/12/14 00:30:13;;;;;;;3.07;2.80;;;;;;;12.20;58.54;97725.94;8361654;23;20283;-78
2023/12/14 00:33:36;;;;;;;3.20;2.93;;;;;;;12.16;58.79;97731.00;8362278;23;20192;-78
2023/12/14 00:36:58;;;;;;;5.00;3.00;;;;;;;11.52;59.10;97644.06;8362379;23;20274;-78
2023/12/14 00:40:19;;;;;;;3.37;3.07;;;;;;;12.03;59.82;97741.28;8361072;23;20343;-76
2023/12/14 00:43:41;;;;;;;3.00;2.80;;;;;;;12.21;59.36;97735.69;8362638;23;20213;-76
2023/12/14 00:47:02;;;;;;;3.30;3.00;;;;;;;12.15;59.23;97744.78;8363021;23;20713;-77
2023/12/14 00:50:25;;;;;;;3.50;3.20;;;;;;;12.27;58.77;97753.66;8362053;23;20515;-76
2023/12/14 00:53:46;;;;;;;3.70;3.00;;;;;;;12.31;58.33;97743.97;8360870;23;20220;-76
2023/12/14 00:57:08;;;;;;;3.97;2.90;;;;;;;12.36;57.99;97761.13;8361417;23;20648;-76
2023/12/14 01:00:31;;;;;;;3.40;3.10;;;;;;;12.30;58.27;97762.09;8360121;23;20241;-76
2023/12/14 01:03:52;;;;;;;4.17;3.43;;;;;;;12.29;58.42;97773.97;8362074;23;20190;-76
2023/12/14 01:07:15;;;;;;;3.97;2.97;;;;;;;12.20;58.05;97750.25;8362283;23;20238;-76
2023/12/14 01:10:36;;;;;;;3.70;3.40;;;;;;;12.36;57.88;97780.03;8361045;23;20303;-76
2023/12/14 01:13:58;;;;;;;3.30;3.07;;;;;;;12.22;58.34;97777.88;8361510;23;20212;-76
2023/12/14 01:17:19;;;;;;;3.80;3.50;;;;;;;12.25;58.45;97782.78;8361073;23;20631;-76
2023/12/14 01:20:41;;;;;;;8.43;6.17;;;;;;;12.06;58.53;97789.41;8361227;23;20213;-77
2023/12/14 01:24:05;;;;;;;5.67;4.23;;;;;;;12.21;58.24;97797.84;8362757;23;20184;-76
2023/12/14 01:27:26;;;;;;;4.17;3.77;;;;;;;12.22;57.89;97805.69;8362113;23;20646;-75
2023/12/14 01:30:48;;;;;;;3.60;3.30;;;;;;;12.21;58.12;97805.97;8360965;23;20622;-76
2023/12/14 01:34:11;;;;;;;3.60;3.30;;;;;;;12.21;58.36;97814.06;8360455;23;20213;-77
2023/12/14 01:37:33;;;;;;;3.63;3.33;;;;;;;11.76;59.69;97821.97;8361392;23;20182;-76
2023/12/14 01:40:56;;;;;;;12.50;9.27;;;;;;;11.92;59.83;97826.66;8360447;23;20392;-76
2023/12/14 01:44:18;;;;;;;6.80;6.10;;;;;;;11.93;60.41;97839.13;8361290;23;20186;-76
2023/12/14 01:47:39;;;;;;;6.47;4.97;;;;;;;11.90;60.39;97838.75;8361754;23;20671;-76
2023/12/14 01:51:01;;;;;;;4.17;3.77;;;;;;;11.87;60.82;97844.66;8360555;23;20239;-76
2023/12/14 01:54:22;;;;;;;4.37;3.97;;;;;;;12.12;60.22;97843.34;8361773;23;20243;-76
2023/12/14 01:57:45;;;;;;;3.73;3.43;;;;;;;12.26;59.56;97855.50;8364245;23;20217;-76
2023/12/14 02:01:12;;;;;;;4.53;4.17;;;;;;;12.28;59.36;97845.28;8363318;23;20276;-76
2023/12/14 02:04:34;;;;;;;4.80;4.27;;;;;;;12.14;59.83;97859.28;8363200;23;20251;-77
2023/12/14 02:07:56;;;;;;;4.83;4.23;;;;;;;12.19;59.72;97856.69;8362500;23;20780;-76
2023/12/14 02:11:18;;;;;;;4.60;4.20;;;;;;;12.20;59.33;97850.22;8361383;23;20214;-77
2023/12/14 02:14:41;;;;;;;4.50;4.10;;;;;;;12.24;59.36;97867.63;8363504;23;20563;-76
2023/12/14 02:18:02;;;;;;;5.03;4.63;;;;;;;11.88;60.14;97868.75;8363516;23;20259;-76
2023/12/14 02:21:24;;;;;;;4.93;4.53;;;;;;;12.01;60.44;97862.25;8362306;23;20806;-76
2023/12/14 02:24:46;;;;;;;5.63;5.03;;;;;;;12.06;60.34;97871.31;8361962;23;20264;-76
2023/12/14 02:28:08;;;;;;;5.93;5.33;;;;;;;12.10;60.03;97868.94;8362492;23;20272;-76
2023/12/14 02:31:29;;;;;;;8.43;5.07;;;;;;;12.05;60.45;97885.03;8361935;23;20245;-76
2023/12/14 02:34:51;;;;;;;5.23;4.37;;;;;;;12.01;60.90;97883.84;8363873;23;20225;-78
2023/12/14 02:38:12;;;;;;;4.83;4.43;;;;;;;11.99;60.61;97886.78;8363419;23;20280;-77
2023/12/14 02:41:35;;;;;;;4.60;4.20;;;;;;;12.15;60.04;97879.88;8361993;23;20284;-78
2023/12/14 02:44:57;;;;;;;6.43;4.40;;;;;;;12.03;60.39;97893.38;8363000;23;20271;-77
2023/12/14 02:48:18;;;;;;;4.73;4.33;;;;;;;12.24;60.26;97902.75;8361883;23;20776;-78
2023/12/14 02:51:40;;;;;;;4.90;4.07;;;;;;;11.95;60.46;97898.31;8359657;23;20242;-77
2023/12/14 02:55:01;;;;;;;6.40;4.83;;;;;;;11.78;61.10;97898.19;8363551;23;20224;-78
2023/12/14 02:58:24;;;;;;;6.10;5.33;;;;;;;12.10;60.26;97898.66;8363252;23;20189;-78
2023/12/14 03:01:46;;;;;;;5.00;4.50;;;;;;;12.08;60.16;97901.59;8362261;23;20201;-78
2023/12/14 03:05:08;;;;;;;5.00;4.60;;;;;;;12.09;60.29;97902.44;8361554;23;20216;-77
2023/12/14 03:08:29;;;;;;;5.20;4.70;;;;;;;12.17;60.03;97910.97;8362830;23;20213;-78
2023/12/14 03:11:51;;;;;;;5.37;4.30;;;;;;;12.12;60.10;97901.94;8363025;23;20292;-78
2023/12/14 03:15:14;;;;;;;4.17;3.87;;;;;;;12.17;59.45;97921.78;8361490;23;20234;-78
2023/12/14 03:18:35;;;;;;;4.30;3.90;;;;;;;12.18;59.85;97930.72;8360682;23;20224;-78
2023/12/14 03:21:56;;;;;;;5.40;3.77;;;;;;;12.14;59.78;97932.25;8361735;23;20282;-78
2023/12/14 03:25:18;;;;;;;4.33;3.97;;;;;;;12.22;59.83;97937.31;8363744;23;20268;-78
2023/12/14 03:28:39;;;;;;;4.50;4.10;;;;;;;12.14;59.46;97933.06;8361962;23;20221;-77
2023/12/14 03:32:05;;;;;;;4.77;4.10;;;;;;;11.64;60.66;97895.97;8367175;23;20305;-78
2023/12/14 03:35:26;;;;;;;5.13;4.53;;;;;;;12.18;60.36;97949.63;8366721;23;20231;-77
2023/12/14 03:38:48;;;;;;;4.40;4.00;;;;;;;12.20;60.27;97961.84;8361025;23;20665;-77
2023/12/14 03:42:09;;;;;;;4.43;4.03;;;;;;;12.30;59.85;97958.56;8361966;23;20288;-78
2023/12/14 03:45:31;;;;;;;7.40;4.93;;;;;;;11.80;60.48;97965.50;8361562;23;20693;-78
2023/12/14 03:48:54;;;;;;;6.37;4.70;;;;;;;12.15;60.49;97969.84;8360753;23;20196;-77
2023/12/14 03:52:15;;;;;;;4.70;4.30;;;;;;;12.23;60.27;97979.47;8360712;23;20287;-78
2023/12/14 03:55:37;;;;;;;5.37;4.10;;;;;;;12.39;59.74;97978.78;8361177;23;20232;-77
2023/12/14 03:58:58;;;;;;;4.40;4.00;;;;;;;12.38;59.27;97991.44;8359825;23;20300;-77
2023/12/14 04:02:20;;;;;;;5.63;3.83;;;;;;;12.03;60.02;98000.63;8361958;23;20279;-78
2023/12/14 04:05:44;;;;;;;4.23;3.83;;;;;;;11.88;60.71;97995.69;8361371;23;20220;-78
2023/12/14 04:09:05;;;;;;;4.67;3.83;;;;;;;11.94;60.52;97996.63;8360016;23;20518;-78
2023/12/14 04:12:27;;;;;;;4.43;4.03;;;;;;;12.18;60.08;98009.91;8360593;23;20220;-77
2023/12/14 04:15:48;;;;;;;5.17;4.70;;;;;;;12.21;60.29;98027.53;8361173;23;20771;-78
2023/12/14 04:19:10;;;;;;;4.20;3.90;;;;;;;12.33;59.94;98009.44;8362103;23;20265;-78
2023/12/14 04:22:33;;;;;;;4.37;4.07;;;;;;;12.20;59.57;98020.47;8362391;23;20215;-78
2023/12/14 04:25:54;;;;;;;5.07;4.23;;;;;;;12.13;60.44;98035.97;8362363;23;20263;-78
2023/12/14 04:29:16;;;;;;;5.27;4.37;;;;;;;12.02;60.25;98031.38;8362041;23;20215;-77
2023/12/14 04:32:37;;;;;;;5.40;4.40;;;;;;;11.90;61.19;98044.03;8361097;23;20241;-77
2023/12/14 04:35:59;;;;;;;5.63;4.70;;;;;;;12.09;60.95;98041.03;8361400;23;20272;-78
2023/12/14 04:39:22;;;;;;;5.13;4.63;;;;;;;12.11;60.55;98047.00;8361992;23;20258;-78
2023/12/14 04:42:43;;;;;;;5.17;4.67;;;;;;;11.98;60.90;98055.34;8362955;23;20293;-78
2023/12/14 04:46:05;;;;;;;6.90;4.30;;;;;;;12.19;60.67;98051.25;8362447;23;20319;-77
2023/12/14 04:49:27;;;;;;;4.83;4.27;;;;;;;11.95;61.50;98066.63;8360817;23;20185;-77
2023/12/14 04:52:48;;;;;;;9.17;6.40;;;;;;;12.02;60.94;98064.63;8360042;23;20288;-77
2023/12/14 04:56:14;;;;;;;8.33;6.53;;;;;;;12.11;61.00;98078.63;8361385;23;20645;-77
2023/12/14 04:59:35;;;;;;;7.60;6.07;;;;;;;11.98;60.96;98079.66;8360917;23;20267;-78
2023/12/14 05:02:57;;;;;;;7.80;5.90;;;;;;;12.01;61.25;98089.16;8361524;23;20232;-77
2023/12/14 05:06:18;;;;;;;5.43;4.93;;;;;;;12.15;61.09;98086.03;8361666;23;20618;-77
2023/12/14 05:09:40;;;;;;;7.20;5.13;;;;;;;11.89;62.00;98086.44;8360591;23;20275;-78
2023/12/14 05:13:03;;;;;;;5.70;4.97;;;;;;;11.94;61.69;98093.84;8361082;23;20654;-77
2023/12/14 05:16:26;;;;;;;6.10;4.70;;;;;;;11.86;62.03;98097.69;8362662;23;20698;-76
2023/12/14 05:19:47;;;;;;;8.83;6.23;;;;;;;11.95;61.69;98098.19;8361995;23;20579;-77
2023/12/14 05:23:09;;;;;;;8.47;5.90;;;;;;;11.98;61.62;98113.97;8361496;23;20263;-77
2023/12/14 05:26:31;;;;;;;6.10;5.10;;;;;;;12.05;61.76;98125.50;8362713;23;20184;-77
2023/12/14 05:29:53;;;;;;;5.97;5.33;;;;;;;12.18;61.35;98126.13;8362880;23;20276;-77
2023/12/14 05:33:15;;;;;;;6.20;4.90;;;;;;;12.31;61.06;98119.66;8365730;23;20284;-77
2023/12/14 05:36:36;;;;;;;10.00;6.67;;;;;;;12.38;60.59;98133.88;8366400;23;20186;-78
2023/12/14 05:39:58;;;;;;;10.43;7.00;;;;;;;12.05;60.93;98139.00;8362853;23;20228;-77
2023/12/14 05:43:19;;;;;;;9.47;7.13;;;;;;;11.70;62.08;98138.03;8363091;23;20178;-77
2023/12/14 05:46:43;;;;;;;8.43;6.37;;;;;;;12.08;61.82;98154.72;8362342;23;20769;-78
2023/12/14 05:50:05;;;;;;;7.30;6.60;;;;;;;12.15;61.76;98164.41;8360022;23;20229;-78
2023/12/14 05:53:27;;;;;;;6.97;5.70;;;;;;;12.42;61.06;98172.94;8376583;23;20665;-77
2023/12/14 05:56:48;;;;;;;7.37;6.10;;;;;;;12.54;60.33;98169.19;8363554;23;20195;-77
2023/12/14 06:00:10;;;;;;;8.97;7.03;;;;;;;12.31;60.46;98163.75;8362297;23;20258;-77
2023/12/14 06:03:33;;;;;;;5.97;5.47;;;;;;;12.40;60.81;98186.66;8363504;23;20188;-78
2023/12/14 06:06:54;;;;;;;6.20;5.60;;;;;;;12.16;61.83;98200.38;8364219;23;20636;-79
2023/12/14 06:10:16;;;;;;;6.70;5.43;;;;;;;12.36;61.16;98204.44;8365579;23;20638;-79
2023/12/14 06:13:38;;;;;;;5.10;4.60;;;;;;;12.36;60.72;98195.47;8367692;23;20222;-79
2023/12/14 06:17:00;;;;;;;5.37;4.87;;;;;;;12.22;60.97;98208.34;8366854;23;20189;-78
2023/12/14 06:20:23;;;;;;;5.53;4.67;;;;;;;12.17;61.28;98202.00;8365825;23;20236;-79
2023/12/14 06:23:44;;;;;;;6.60;5.90;;;;;;;11.96;61.97;98213.31;8365235;23;20186;-76
2023/12/14 06:27:06;;;;;;;6.00;5.27;;;;;;;12.03;62.04;98217.56;8363122;23;20205;-79
2023/12/14 06:30:27;;;;;;;5.33;4.83;;;;;;;12.03;62.31;98217.56;8363312;23;20212;-78
2023/12/14 06:33:49;;;;;;;7.67;5.60;;;;;;;12.35;61.69;98227.13;8364023;23;20372;-78
2023/12/14 06:37:12;;;;;;;7.33;6.63;;;;;;;12.35;61.55;98242.50;8362376;23;20518;-78
2023/12/14 06:40:34;;;;;;;12.07;5.77;;;;;;;12.49;60.97;98239.38;8360750;23;20209;-79
2023/12/14 06:43:56;;;;;;;6.47;5.27;;;;;;;12.55;60.55;98246.56;8363048;23;20324;-77
2023/12/14 06:47:17;;;;;;;9.17;5.53;;;;;;;12.46;60.60;98255.22;8363104;23;20261;-79
2023/12/14 06:50:38;;;;;;;6.40;5.23;;;;;;;12.67;60.69;98262.78;8363100;23;20299;-78
2023/12/14 06:54:01;;;;;;;6.03;4.97;;;;;;;12.60;60.57;98262.91;8363061;23;20284;-78
2023/12/14 06:57:23;;;;;;;5.73;4.93;;;;;;;12.68;60.16;98278.81;8362360;23;20232;-79
2023/12/14 07:00:44;;;;;;;6.43;5.53;;;;;;;12.67;60.07;98279.88;8360779;23;20229;-78
2023/12/14 07:04:07;;;;;;;6.43;5.47;;;;;;;12.60;60.23;98297.22;8362978;23;20601;-79
2023/12/14 07:07:29;;;;;;;4.93;4.37;;;;;;;12.63;59.66;98297.59;8363056;23;20213;-79
2023/12/14 07:10:52;;;;;;;6.53;5.10;;;;;;;12.55;60.27;98313.31;8361913;23;20337;-79
2023/12/14 07:14:14;;;;;;;9.40;6.97;;;;;;;12.07;61.38;98326.00;8360662;23;20242;-78
2023/12/14 07:17:36;;;;;;;11.27;7.83;;;;;;;11.75;62.77;98340.72;8362264;23;20185;-77
2023/12/14 07:20:58;;;;;;;10.23;6.40;;;;;;;11.86;63.05;98342.69;8357578;23;20913;-78
2023/12/14 07:24:19;;;;;;;8.80;6.47;;;;;;;12.37;61.91;98352.03;8361235;23;20182;-78
2023/12/14 07:27:42;;;;;;;9.57;6.50;;;;;;;12.44;61.50;98360.06;8360880;23;20263;-78
2023/12/14 07:31:04;;;;;;;8.20;6.90;;;;;;;12.62;61.04;98365.47;8361809;23;20213;-77
2023/12/14 07:34:28;;;;;;;10.13;6.90;;;;;;;12.57;61.07;98362.59;8363200;23;20301;-78
2023/12/14 07:37:49;;;;;;;8.00;7.00;;;;;;;12.35;61.67;98367.69;8362696;23;20186;-78
2023/12/14 07:41:10;;;;;;;9.37;6.07;;;;;;;12.65;60.38;98359.56;8361391;23;20640;-78
2023/12/14 07:44:35;;;;;;;9.20;7.10;;;;;;;12.47;60.80;98373.97;8361615;23;20209;-78
2023/12/14 07:47:56;;;;;;;7.00;6.30;;;;;;;12.49;60.64;98379.13;8361687;23;20669;-78
2023/12/14 07:51:18;;;;;;;17.20;11.73;;;;;;;12.45;61.07;98386.88;8358416;23;20224;-78
2023/12/14 07:54:39;;;;;;;25.83;14.27;;;;;;;12.70;60.04;98384.88;8361985;23;20214;-78
2023/12/14 07:58:01;;;;;;;13.47;9.97;;;;;;;12.61;60.85;98394.38;8362490;23;20222;-77
2023/12/14 08:01:24;;;;;;;14.07;7.57;;;;;;;12.74;60.64;98401.50;8361143;23;20206;-78
2023/12/14 08:04:46;;;;;;;30.53;18.97;;;;;;;12.69;60.96;98409.47;8361823;23;20240;-78
2023/12/14 08:08:07;;;;;;;19.23;11.77;;;;;;;12.79;60.66;98413.28;8361070;23;20272;-77
2023/12/14 08:11:29;;;;;;;10.03;7.23;;;;;;;12.85;60.59;98409.66;8363524;23;20233;-77
2023/12/14 08:14:50;;;;;;;9.10;7.37;;;;;;;12.58;60.58;98370.47;8363113;23;20201;-78
2023/12/14 08:18:13;;;;;;;9.80;8.33;;;;;;;12.89;60.17;98418.97;8362829;23;20630;-77
2023/12/14 08:21:35;;;;;;;13.07;9.37;;;;;;;12.95;60.38;98425.34;8361663;23;20287;-78
2023/12/14 08:24:56;;;;;;;11.80;8.40;;;;;;;13.13;59.84;98426.16;8362155;23;20216;-78
2023/12/14 08:28:17;;;;;;;11.27;8.27;;;;;;;12.90;60.48;98430.59;8360964;23;20264;-78
2023/12/14 08:31:39;;;;;;;8.43;7.30;;;;;;;12.99;60.00;98446.31;8361967;23;20733;-78
2023/12/14 08:35:02;;;;;;;9.57;7.87;;;;;;;12.81;60.07;98416.56;8362628;23;20291;-79
2023/12/14 08:38:24;;;;;;;11.70;8.53;;;;;;;12.85;60.52;98462.91;8362423;23;20185;-79
2023/12/14 08:41:46;;;;;;;13.33;9.80;;;;;;;12.59;60.70;98455.16;8361087;23;20209;-79
2023/12/14 08:45:11;;;;;;;10.13;7.80;;;;;;;13.00;60.58;98471.50;8361743;23;20182;-78
2023/12/14 08:48:33;;;;;;;9.07;7.83;;;;;;;13.14;59.55;98470.28;8360448;23;20261;-78
2023/12/14 08:51:55;;;;;;;10.87;7.90;;;;;;;13.20;59.63;98488.28;8362368;23;20606;-78
2023/12/14 08:55:17;;;;;;;8.73;7.83;;;;;;;13.34;59.08;98504.13;8362295;23;20202;-78
2023/12/14 08:58:39;;;;;;;8.90;8.00;;;;;;;13.32;59.59;98505.41;8360498;23;20687;-78
2023/12/14 09:02:00;;;;;;;9.47;8.57;;;;;;;12.85;60.59;98520.56;8361930;23;20210;-78
2023/12/14 09:05:22;;;;;;;10.13;8.30;;;;;;;12.95;61.00;98525.44;8361575;23;20279;-79
2023/12/14 09:09:00;;;;;;;12.37;8.40;;;;;;;12.66;61.43;98518.09;8360620;23;20307;-78
2023/12/14 09:12:21;;;;;;;10.03;9.00;;;;;;;13.15;61.05;98526.88;8241310;23;20343;-79
2023/12/14 09:15:43;;;;;;;11.70;9.30;;;;;;;13.45;60.50;98535.03;8239506;23;20656;-77
2023/12/14 09:19:04;;;;;;;10.47;9.37;;;;;;;13.49;60.11;98537.06;8239735;23;20348;-79
2023/12/14 09:22:26;;;;;;;11.50;8.70;;;;;;;13.45;60.17;98533.13;8239464;23;20777;-78
2023/12/14 09:25:49;;;;;;;13.17;9.73;;;;;;;13.46;60.03;98544.81;8239352;24;20267;-79
2023/12/14 09:29:11;;;;;;;10.57;9.27;;;;;;;13.38;60.41;98566.78;8238957;24;20687;-77
2023/12/14 09:32:32;;;;;;;11.00;9.57;;;;;;;13.35;60.47;98569.97;8238392;24;20207;-78
2023/12/14 09:35:54;;;;;;;11.77;9.73;;;;;;;13.28;60.65;98574.63;8240084;23;20212;-79
2023/12/14 09:39:15;;;;;;;12.43;9.20;;;;;;;13.28;60.56;98580.06;8237358;23;20771;-78
2023/12/14 09:42:39;;;;;;;11.40;9.33;;;;;;;13.54;60.22;98568.84;8239725;24;20208;-79
2023/12/14 09:46:01;;;;;;;11.43;10.23;;;;;;;13.89;59.23;98577.94;8240143;24;20180;-78
2023/12/14 09:49:28;;;;;;;12.73;9.83;;;;;;;13.61;59.43;98581.25;8309168;23;20528;-77
2023/12/14 09:52:49;;;;;;;10.40;9.27;;;;;;;13.88;59.58;98592.53;8358891;23;20210;-80
2023/12/14 09:56:11;;;;;;;12.83;9.63;;;;;;;14.04;58.77;98587.28;8360542;23;20606;-78
2023/12/14 09:59:33;;;;;;;10.47;9.47;;;;;;;14.21;58.41;98601.03;8361084;23;20544;-79
2023/12/14 10:02:55;;;;;;;11.60;9.13;;;;;;;14.01;58.79;98605.91;8360504;23;20781;-78
2023/12/14 10:06:18;;;;;;;13.90;10.10;;;;;;;14.05;59.12;98605.19;8361423;23;20320;-78
2023/12/14 10:09:40;;;;;;;11.80;10.60;;;;;;;13.93;58.96;98609.75;8359251;23;20276;-77
2023/12/14 10:13:01;;;;;;;11.83;9.97;;;;;;;13.75;59.35;98603.59;8362246;23;20537;-78
2023/12/14 10:16:32;;;;;;;12.70;11.20;;;;;;;14.06;59.10;98603.31;8362176;23;20650;-78
2023/12/14 10:19:54;;;;;;;14.10;9.53;;;;;;;13.93;59.01;98606.22;8361578;23;20291;-79
2023/12/14 10:23:15;;;;;;;13.43;10.07;;;;;;;13.85;59.83;98620.09;8363271;23;20240;-77
2023/12/14 10:26:36;;;;;;;11.37;9.33;;;;;;;13.92;59.84;98626.28;8365580;23;20190;-77
2023/12/14 10:29:58;;;;;;;10.37;8.93;;;;;;;14.03;58.90;98639.00;8365774;23;20798;-77
2023/12/14 10:33:21;;;;;;;11.80;10.60;;;;;;;14.21;59.10;98639.81;8366789;23;20205;-77
2023/12/14 10:36:45;;;;;;;12.77;9.63;;;;;;;14.13;58.99;98639.28;8365442;23;20213;-78
2023/12/14 10:40:08;;;;;;;9.77;8.77;;;;;;;14.34;58.49;98642.31;8363931;23;20744;-79
2023/12/14 10:43:32;;;;;;;12.47;10.00;;;;;;;14.12;58.59;98634.91;8364095;23;20189;-77
2023/12/14 10:46:56;;;;;;;13.33;10.43;;;;;;;14.16;58.65;98639.66;8363585;23;20186;-79
2023/12/14 10:50:20;;;;;;;10.97;9.83;;;;;;;14.25;58.02;98643.72;8362443;23;20205;-77
2023/12/14 10:53:46;;;;;;;10.27;9.17;;;;;;;13.77;59.20;98650.22;8363969;23;20662;-78
2023/12/14 10:57:08;;;;;;;13.70;10.33;;;;;;;13.98;58.86;98660.59;8364095;23;20162;-77
2023/12/14 11:00:32;;;;;;;16.07;12.37;;;;;;;13.50;59.86;98652.47;8362617;23;20206;-78
2023/12/14 11:03:56;;;;;;;14.60;10.83;;;;;;;13.25;60.15;98661.72;8363059;23;20178;-78
2023/12/14 11:07:19;;;;;;;14.77;11.67;;;;;;;13.00;61.93;98660.94;8363497;23;20178;-77
2023/12/14 11:10:42;;;;;;;19.77;13.00;;;;;;;13.60;60.31;98658.16;8363690;23;20237;-79
2023/12/14 11:14:04;;;;;;;14.73;11.57;;;;;;;13.57;60.06;98674.88;8365764;23;20263;-77
2023/12/14 11:17:26;;;;;;;16.10;12.30;;;;;;;13.80;60.03;98677.69;8378790;23;20252;-78
2023/12/14 11:20:49;;;;;;;17.57;12.63;;;;;;;13.47;60.50;98652.09;8365436;23;20206;-78
2023/12/14 11:24:12;;;;;;;14.73;11.50;;;;;;;13.45;60.69;98678.59;8366039;23;20178;-78
2023/12/14 11:27:33;;;;;;;15.27;11.77;;;;;;;13.84;60.47;98688.91;8366858;23;20221;-80
2023/12/14 11:30:55;;;;;;;14.37;11.50;;;;;;;13.56;60.61;98681.34;8366268;23;20202;-78
2023/12/14 11:34:17;;;;;;;14.37;11.47;;;;;;;13.62;60.31;98685.84;8367189;23;20206;-78
2023/12/14 11:37:39;;;;;;;17.23;12.73;;;;;;;14.07;59.62;98689.00;8366808;23;20627;-79
2023/12/14 11:41:02;;;;;;;15.57;11.93;;;;;;;14.05;59.58;98700.06;8366588;23;20264;-77
2023/12/14 11:44:23;;;;;;;13.17;11.80;;;;;;;14.20;59.13;98703.25;8368059;23;20627;-78
2023/12/14 11:47:45;;;;;;;11.73;10.30;;;;;;;14.04;59.07;98701.13;8367216;23;20237;-78
2023/12/14 11:51:07;;;;;;;12.97;10.03;;;;;;;14.09;59.60;98703.19;8365229;23;20216;-77
2023/12/14 11:54:28;;;;;;;10.97;9.80;;;;;;;14.11;58.66;98709.19;8367647;23;20226;-77
2023/12/14 11:57:52;;;;;;;15.03;10.50;;;;;;;14.35;58.77;98706.38;8368836;23;20186;-78
2023/12/14 12:01:15;;;;;;;11.37;10.07;;;;;;;14.30;58.76;98711.66;8368514;23;20681;-78
2023/12/14 12:04:36;;;;;;;11.87;9.60;;;;;;;14.06;58.59;98665.66;8368969;23;20193;-78
2023/12/14 12:07:58;;;;;;;12.30;9.03;;;;;;;13.96;58.71;98687.91;8368369;23;20185;-79
2023/12/14 12:11:21;;;;;;;10.63;9.33;;;;;;;14.07;58.54;98721.53;8368942;23;20206;-79
2023/12/14 12:14:44;;;;;;;13.90;10.27;;;;;;;14.38;57.77;98705.06;8366177;23;20281;-78
2023/12/14 12:18:07;;;;;;;11.13;9.67;;;;;;;14.18;59.15;98724.31;8364683;23;20197;-78
2023/12/14 12:21:28;;;;;;;14.37;9.53;;;;;;;14.12;58.74;98730.66;8362990;23;20225;-79
2023/12/14 12:24:50;;;;;;;13.87;9.53;;;;;;;13.87;59.34;98734.53;8363427;23;20205;-78
2023/12/14 12:28:11;;;;;;;11.77;9.23;;;;;;;13.84;58.84;98743.94;8363150;23;20269;-79
2023/12/14 12:31:34;;;;;;;11.20;9.37;;;;;;;13.86;58.34;98741.81;8362810;23;20834;-81
2023/12/14 12:34:56;;;;;;;12.57;8.87;;;;;;;13.97;58.14;98741.06;8363219;23;20206;-79
2023/12/14 12:38:18;;;;;;;12.00;9.00;;;;;;;13.96;58.07;98744.00;8363769;23;20185;-79
2023/12/14 12:41:40;;;;;;;11.20;9.47;;;;;;;13.63;59.40;98749.81;8362965;23;20218;-79
2023/12/14 12:45:01;;;;;;;15.03;10.43;;;;;;;13.80;58.73;98750.06;8364114;23;20214;-80
2023/12/14 12:48:24;;;;;;;12.70;10.00;;;;;;;13.69;59.09;98748.09;8364711;23;20197;-80
2023/12/14 12:51:47;;;;;;;14.33;10.23;;;;;;;13.69;58.94;98745.38;8364738;23;20284;-79
2023/12/14 12:55:10;;;;;;;11.30;9.50;;;;;;;13.86;58.36;98749.16;8363744;23;20212;-79
2023/12/14 12:58:31;;;;;;;16.60;10.10;;;;;;;13.92;58.59;98743.63;8364091;23;20182;-79
2023/12/14 13:01:54;;;;;;;10.87;9.17;;;;;;;14.08;58.39;98748.44;8364401;23;20281;-80
2023/12/14 13:05:17;;;;;;;10.43;8.33;;;;;;;13.99;58.46;98765.25;8364799;23;20205;-80
2023/12/14 13:08:38;;;;;;;8.93;7.70;;;;;;;13.78;58.75;98762.97;8364031;23;20557;-79
2023/12/14 13:12:00;;;;;;;8.43;7.00;;;;;;;13.36;60.56;98777.41;8364590;23;20697;-79
2023/12/14 13:15:23;;;;;;;8.13;6.70;;;;;;;13.22;60.62;98771.28;8362770;23;20202;-78
2023/12/14 13:18:45;;;;;;;7.53;6.57;;;;;;;13.49;60.29;98786.22;8363390;23;20579;-79
2023/12/14 13:22:10;;;;;;;9.40;6.67;;;;;;;13.39;60.79;98774.28;8362337;23;20213;-79
2023/12/14 13:25:34;;;;;;;6.70;6.00;;;;;;;13.15;60.46;98775.13;8364329;23;20168;-79
2023/12/14 13:28:56;;;;;;;12.90;5.80;;;;;;;13.43;58.84;98799.81;8363887;23;20192;-81
2023/12/14 13:32:21;;;;;;;10.57;6.90;;;;;;;13.96;58.40;98790.06;8362616;23;20209;-79
2023/12/14 13:35:43;;;;;;;7.63;4.40;;;;;;;14.13;57.15;98794.66;8363793;23;20212;-79
2023/12/14 13:39:06;;;;;;;9.10;4.50;;;;;;;14.12;56.17;98801.16;8363890;23;20182;-79
2023/12/14 13:42:29;;;;;;;8.80;4.50;;;;;;;13.88;56.27;98812.91;8363669;23;20228;-82
2023/12/14 13:45:52;;;;;;;5.03;4.47;;;;;;;13.11;59.00;98828.84;8376424;23;20182;-80
2023/12/14 13:49:14;;;;;;;4.97;4.47;;;;;;;12.63;60.91;98843.94;8365114;23;20190;-80
2023/12/14 13:52:35;;;;;;;7.70;5.20;;;;;;;12.74;61.23;98850.56;8364350;23;20210;-80
2023/12/14 13:55:58;;;;;;;5.60;4.70;;;;;;;12.59;61.57;98810.28;8363718;23;20202;-80
2023/12/14 13:59:20;;;;;;;6.73;5.00;;;;;;;12.91;61.32;98846.25;8364542;23;20224;-80
2023/12/14 14:02:43;;;;;;;5.80;5.10;;;;;;;12.74;61.32;98821.59;8364461;23;20288;-80
2023/12/14 14:06:06;;;;;;;6.60;5.57;;;;;;;12.93;60.66;98806.28;8365280;23;20595;-81
2023/12/14 14:09:29;;;;;;;7.10;5.93;;;;;;;13.08;61.01;98864.50;8365234;23;20197;-81
2023/12/14 14:12:53;;;;;;;5.87;4.93;;;;;;;12.68;61.56;98870.38;8364739;23;20212;-80
2023/12/14 14:16:16;;;;;;;6.73;5.33;;;;;;;13.22;60.89;98882.28;8365287;23;20264;-79
2023/12/14 14:19:40;;;;;;;8.33;5.87;;;;;;;13.19;60.83;98904.41;8364638;23;20221;-79
2023/12/14 14:23:01;;;;;;;7.20;5.63;;;;;;;12.91;61.76;98892.25;8365889;23;20209;-79
2023/12/14 14:26:23;;;;;;;6.00;5.40;;;;;;;13.11;61.31;98915.47;8367164;23;20549;-79
2023/12/14 14:29:45;;;;;;;7.10;5.27;;;;;;;12.95;61.51;98910.59;8365136;23;20248;-79
2023/12/14 14:33:07;;;;;;;8.63;5.70;;;;;;;13.31;60.89;98926.16;8367384;23;20209;-79
2023/12/14 14:36:28;;;;;;;7.13;4.80;;;;;;;12.85;61.84;98928.31;8366403;23;20217;-79
2023/12/14 14:39:51;;;;;;;5.37;4.80;;;;;;;12.74;61.88;98937.94;8365747;23;20233;-80
2023/12/14 14:43:12;;;;;;;5.10;4.60;;;;;;;13.00;61.32;98942.41;8365767;23;20186;-80
2023/12/14 14:46:41;;;;;;;6.73;4.73;;;;;;;12.86;61.52;98947.03;8366305;23;20177;-79
2023/12/14 14:50:04;;;;;;;5.30;4.80;;;;;;;12.69;61.99;98947.75;8363656;23;20166;-80
2023/12/14 14:53:27;;;;;;;6.03;5.10;;;;;;;13.20;60.97;98953.94;8364514;23;20221;-79
2023/12/14 14:56:49;;;;;;;7.03;5.93;;;;;;;13.31;60.89;98956.81;8362721;23;20213;-78
2023/12/14 15:00:11;;;;;;;7.20;6.47;;;;;;;13.17;60.59;98963.31;8362295;23;20181;-78
2023/12/14 15:03:34;;;;;;;10.63;7.30;;;;;;;12.97;61.46;98967.19;8363897;23;20522;-78
2023/12/14 15:06:55;;;;;;;8.47;7.03;;;;;;;12.82;61.85;98982.88;8364034;23;20213;-78
2023/12/14 15:10:19;;;;;;;9.33;7.07;;;;;;;12.84;61.77;98965.38;8363928;23;20247;-77
2023/12/14 15:13:41;;;;;;;8.00;6.87;;;;;;;13.00;61.04;98991.13;8364197;23;20721;-78
2023/12/14 15:17:03;;;;;;;11.83;7.40;;;;;;;13.22;60.73;99003.31;8368175;23;20202;-78
2023/12/14 15:20:26;;;;;;;10.73;8.90;;;;;;;13.45;59.98;99003.59;8373058;23;20206;-78
2023/12/14 15:23:49;;;;;;;10.43;7.93;;;;;;;12.84;61.10;99007.81;8366314;23;20188;-77
2023/12/14 15:27:10;;;;;;;10.53;7.50;;;;;;;13.20;60.46;99018.91;8365567;23;20193;-77
2023/12/14 15:30:31;;;;;;;10.23;8.03;;;;;;;13.25;60.34;99019.09;8363341;23;20206;-78
2023/12/14 15:33:56;;;;;;;10.90;8.13;;;;;;;13.09;60.64;99019.63;8364620;23;20276;-78
2023/12/14 15:37:19;;;;;;;13.33;9.40;;;;;;;13.00;61.78;99031.75;8377866;23;20178;-79
2023/12/14 15:40:40;;;;;;;11.63;9.53;;;;;;;12.98;61.68;99039.25;8363577;23;20221;-79
2023/12/14 15:44:04;;;;;;;11.47;9.20;;;;;;;13.15;61.37;99029.59;8364590;23;20185;-77
2023/12/14 15:47:26;;;;;;;12.27;9.23;;;;;;;13.46;60.41;99054.00;8364451;23;20192;-78